Time;durP1;ratioP1;P1;durP2;ratioP2;P2;SDS_P1;SDS_P2;PMS_P1;PMS_P2;Temp;Humidity;BMP_temperature;BMP_pressure;BME280_temperature;BME280_humidity;BME280_pressure;Samples;Min_cycle;Max_cycle;Signal;HPM_P1;HPM_P2
2022/09/03 00:02:44;;;;;;;2.38;1.23;;;22.90;99.90;;;;;;5051226;28;20037;-71
2022/09/03 00:05:17;;;;;;;4.55;1.50;;;22.90;99.90;;;;;;5052989;28;20099;-73
2022/09/03 00:08:04;;;;;;;3.72;1.48;;;22.90;99.90;;;;;;5034623;28;20044;-72
2022/09/03 00:10:40;;;;;;;9.80;2.42;;;22.90;99.90;;;;;;5034911;28;20049;-72
2022/09/03 00:13:09;;;;;;;2.40;1.10;;;22.90;99.90;;;;;;5052222;28;20488;-72
2022/09/03 00:15:39;;;;;;;3.75;1.30;;;22.90;99.90;;;;;;5034503;28;20099;-72
2022/09/03 00:18:22;;;;;;;2.95;1.60;;;22.90;99.90;;;;;;5050544;28;20132;-72
2022/09/03 00:20:54;;;;;;;1.73;0.90;;;22.90;99.90;;;;;;5031038;28;20041;-72
2022/09/03 00:23:26;;;;;;;2.28;1.25;;;22.90;99.90;;;;;;5032263;28;20131;-71
2022/09/03 00:26:04;;;;;;;4.03;2.05;;;22.90;99.90;;;;;;5030486;28;20053;-71
2022/09/03 00:29:04;;;;;;;4.18;1.52;;;22.90;99.90;;;;;;5030934;28;20049;-72
2022/09/03 00:31:37;;;;;;;2.55;1.25;;;22.90;99.90;;;;;;5029826;28;20452;-72
2022/09/03 00:34:14;;;;;;;3.38;1.45;;;22.90;99.90;;;;;;5030723;28;20120;-71
2022/09/03 00:36:44;;;;;;;1.45;1.05;;;22.80;99.90;;;;;;5031927;28;20053;-72
2022/09/03 00:39:15;;;;;;;3.35;1.33;;;22.80;99.90;;;;;;5031998;28;20053;-72
2022/09/03 00:41:51;;;;;;;3.33;1.75;;;22.90;99.90;;;;;;5030582;28;20042;-72
2022/09/03 00:44:59;;;;;;;1.98;1.10;;;22.90;99.90;;;;;;5030546;28;20435;-72
2022/09/03 00:48:04;;;;;;;1.48;1.00;;;22.80;99.90;;;;;;5032225;28;20060;-72
2022/09/03 00:50:49;;;;;;;1.58;0.93;;;22.80;99.90;;;;;;5030473;28;20046;-72
2022/09/03 00:53:23;;;;;;;4.68;1.73;;;22.80;99.90;;;;;;5031773;28;20037;-72
2022/09/03 00:56:23;;;;;;;1.45;1.17;;;22.80;99.90;;;;;;5030053;28;20137;-72
2022/09/03 00:59:06;;;;;;;2.35;1.40;;;22.90;99.90;;;;;;5030630;28;20049;-72
2022/09/03 01:02:13;;;;;;;4.10;1.83;;;22.80;99.90;;;;;;5014428;28;20075;-72
2022/09/03 01:04:58;;;;;;;1.90;1.00;;;22.80;99.90;;;;;;5030633;28;20057;-72
2022/09/03 01:07:26;;;;;;;2.38;1.20;;;22.80;99.90;;;;;;5031471;28;20072;-72
2022/09/03 01:10:05;;;;;;;2.92;1.15;;;22.80;99.90;;;;;;5030247;28;20870;-71
2022/09/03 01:12:37;;;;;;;3.28;2.08;;;22.80;99.90;;;;;;5030425;28;20072;-72
2022/09/03 01:15:11;;;;;;;2.90;1.58;;;22.80;99.90;;;;;;5046571;28;20037;-72
2022/09/03 01:18:04;;;;;;;5.22;1.27;;;22.70;99.90;;;;;;5050037;28;20077;-72
2022/09/03 01:20:55;;;;;;;4.07;1.98;;;22.80;99.90;;;;;;5050119;28;20132;-71
2022/09/03 01:23:52;;;;;;;2.63;1.13;;;22.80;99.90;;;;;;5030147;28;20131;-73
2022/09/03 01:27:04;;;;;;;2.38;1.05;;;22.70;99.90;;;;;;5051372;28;20033;-72
2022/09/03 01:29:41;;;;;;;1.58;1.23;;;22.70;99.90;;;;;;5051477;28;20372;-72
2022/09/03 01:32:15;;;;;;;1.75;1.02;;;22.70;99.90;;;;;;5051092;28;20047;-71
2022/09/03 01:35:04;;;;;;;2.42;0.75;;;22.70;99.90;;;;;;5051151;28;20399;-72
2022/09/03 01:38:16;;;;;;;1.48;0.77;;;22.70;99.90;;;;;;5049822;28;20144;-72
2022/09/03 01:40:55;;;;;;;1.95;1.27;;;22.70;99.90;;;;;;5049469;28;20094;-71
2022/09/03 01:43:34;;;;;;;2.65;1.15;;;22.70;99.90;;;;;;5050003;28;20410;-72
2022/09/03 01:46:20;;;;;;;2.47;1.02;;;22.70;99.90;;;;;;5051422;28;20049;-72
2022/09/03 01:48:51;;;;;;;1.83;1.00;;;22.60;99.90;;;;;;5033330;28;20044;-72
2022/09/03 01:51:26;;;;;;;4.22;0.88;;;22.60;99.90;;;;;;5049591;28;20051;-72
2022/09/03 01:54:31;;;;;;;2.92;1.20;;;22.60;99.90;;;;;;5032923;28;20339;-71
2022/09/03 01:57:08;;;;;;;4.35;1.40;;;22.60;99.90;;;;;;5049395;28;20119;-72
2022/09/03 01:59:58;;;;;;;4.20;1.20;;;22.60;99.90;;;;;;5050607;28;20048;-72
2022/09/03 02:02:28;;;;;;;2.08;1.05;;;22.50;99.90;;;;;;5032762;28;20114;-71
2022/09/03 02:05:15;;;;;;;3.80;1.30;;;22.50;99.90;;;;;;5049537;28;20438;-72
2022/09/03 02:08:06;;;;;;;1.52;1.00;;;22.50;99.90;;;;;;5042303;28;20037;-71
2022/09/03 02:10:48;;;;;;;2.90;1.23;;;22.50;99.90;;;;;;5013219;28;20076;-72
2022/09/03 02:13:33;;;;;;;1.98;1.00;;;22.50;99.90;;;;;;5029640;28;20049;-71
2022/09/03 02:16:13;;;;;;;2.50;1.30;;;22.50;99.90;;;;;;5030690;28;20064;-72
2022/09/03 02:18:45;;;;;;;1.98;1.08;;;22.40;99.90;;;;;;5012840;28;20057;-73
2022/09/03 02:21:18;;;;;;;6.53;1.90;;;22.50;99.90;;;;;;5030413;28;20136;-72
2022/09/03 02:23:48;;;;;;;1.83;1.08;;;22.50;99.90;;;;;;5030170;28;20073;-72
2022/09/03 02:26:20;;;;;;;1.58;1.10;;;22.50;99.90;;;;;;5030532;28;20045;-71
2022/09/03 02:28:49;;;;;;;4.28;1.00;;;22.40;99.90;;;;;;5012881;28;20046;-71
2022/09/03 02:31:17;;;;;;;2.08;1.10;;;22.40;99.90;;;;;;5030427;28;20147;-72
2022/09/03 02:33:46;;;;;;;2.10;1.20;;;22.40;99.90;;;;;;5028802;28;20148;-72
2022/09/03 02:36:18;;;;;;;2.05;0.93;;;22.40;99.90;;;;;;5012616;28;20168;-72
2022/09/03 02:38:46;;;;;;;4.50;1.67;;;22.40;99.90;;;;;;5029188;28;20406;-72
2022/09/03 02:41:14;;;;;;;2.90;1.40;;;22.40;99.90;;;;;;5030168;28;20045;-73
2022/09/03 02:44:09;;;;;;;3.28;1.83;;;22.40;99.90;;;;;;5012346;28;20054;-71
2022/09/03 02:46:49;;;;;;;3.33;1.30;;;22.40;99.90;;;;;;5029194;28;20141;-72
2022/09/03 02:49:16;;;;;;;3.55;1.17;;;22.40;99.90;;;;;;5028916;28;20500;-72
2022/09/03 02:51:44;;;;;;;3.80;1.40;;;22.40;99.90;;;;;;5029929;28;20488;-72
2022/09/03 02:54:12;;;;;;;1.85;1.10;;;22.40;99.90;;;;;;5030203;28;20045;-72
2022/09/03 02:56:41;;;;;;;3.75;1.50;;;22.40;99.90;;;;;;5030226;28;20128;-72
2022/09/03 02:59:08;;;;;;;3.28;2.35;;;22.40;99.90;;;;;;5029232;28;20364;-71
2022/09/03 03:01:36;;;;;;;5.28;1.40;;;22.40;99.90;;;;;;5019048;28;20395;-72
2022/09/03 03:04:04;;;;;;;2.60;1.60;;;22.40;99.90;;;;;;5032295;28;20384;-72
2022/09/03 03:06:32;;;;;;;2.20;1.40;;;22.40;99.90;;;;;;5049959;28;20368;-72
2022/09/03 03:09:03;;;;;;;5.45;2.47;;;22.30;99.90;;;;;;5048512;28;20387;-72
2022/09/03 03:11:31;;;;;;;3.03;1.88;;;22.30;99.90;;;;;;5049747;28;20041;-72
2022/09/03 03:13:58;;;;;;;4.72;2.10;;;22.40;99.90;;;;;;5049677;28;20143;-72
2022/09/03 03:16:26;;;;;;;3.20;2.00;;;22.40;99.90;;;;;;5049016;28;20053;-72
2022/09/03 03:18:55;;;;;;;3.10;2.05;;;22.40;99.90;;;;;;5032488;28;20152;-71
2022/09/03 03:21:23;;;;;;;3.35;1.52;;;22.30;99.90;;;;;;5048668;28;20041;-71
2022/09/03 03:23:51;;;;;;;3.85;1.77;;;22.40;99.90;;;;;;5048278;28;20049;-71
2022/09/03 03:26:20;;;;;;;2.67;1.58;;;22.30;99.90;;;;;;5048947;28;20048;-72
2022/09/03 03:28:55;;;;;;;6.35;1.65;;;22.30;99.90;;;;;;5051737;28;20076;-71
2022/09/03 03:31:24;;;;;;;3.35;1.60;;;22.30;99.90;;;;;;5052686;28;20041;-72
2022/09/03 03:33:53;;;;;;;3.60;1.63;;;22.20;99.90;;;;;;5052559;28;20124;-73
2022/09/03 03:36:22;;;;;;;3.95;1.50;;;22.30;99.90;;;;;;5034612;28;20060;-73
2022/09/03 03:38:53;;;;;;;3.22;1.73;;;22.30;99.90;;;;;;5054485;28;20124;-72
2022/09/03 03:41:26;;;;;;;4.70;1.60;;;22.30;99.90;;;;;;5056236;28;20049;-72
2022/09/03 03:43:54;;;;;;;2.35;1.50;;;22.30;99.90;;;;;;5056668;28;20041;-72
2022/09/03 03:46:23;;;;;;;3.53;1.58;;;22.30;99.90;;;;;;5056346;28;20037;-72
2022/09/03 03:48:51;;;;;;;4.45;1.95;;;22.30;99.90;;;;;;5055026;28;20055;-72
2022/09/03 03:51:19;;;;;;;5.50;1.70;;;22.40;99.90;;;;;;5055038;28;20041;-72
2022/09/03 03:53:47;;;;;;;3.45;1.63;;;22.30;99.90;;;;;;5056151;28;20067;-72
2022/09/03 03:56:15;;;;;;;5.68;2.03;;;22.30;99.90;;;;;;5055146;28;20517;-73
2022/09/03 03:58:43;;;;;;;3.15;1.70;;;22.30;99.90;;;;;;5054878;28;20099;-72
2022/09/03 04:01:13;;;;;;;2.42;1.50;;;22.30;99.90;;;;;;5055784;28;20398;-72
2022/09/03 04:03:42;;;;;;;3.97;1.70;;;22.30;99.90;;;;;;5038458;28;20123;-71
2022/09/03 04:06:11;;;;;;;4.95;1.70;;;22.30;99.90;;;;;;5055644;28;20044;-72
2022/09/03 04:08:41;;;;;;;4.35;2.30;;;22.30;99.90;;;;;;5038228;28;20136;-72
2022/09/03 04:11:11;;;;;;;4.05;1.60;;;22.30;99.90;;;;;;5038026;28;20049;-72
2022/09/03 04:13:41;;;;;;;2.47;1.13;;;22.30;99.90;;;;;;5037935;28;20052;-72
2022/09/03 04:16:11;;;;;;;6.68;1.88;;;22.30;99.90;;;;;;5038808;28;20059;-72
2022/09/03 04:18:40;;;;;;;1.98;1.42;;;22.30;99.90;;;;;;5037779;28;20143;-72
2022/09/03 04:21:13;;;;;;;2.70;1.65;;;22.20;99.90;;;;;;5055409;28;20557;-73
2022/09/03 04:23:43;;;;;;;3.70;1.60;;;22.30;99.90;;;;;;5054656;28;20095;-72
2022/09/03 04:26:19;;;;;;;2.80;1.40;;;22.30;99.90;;;;;;5054406;28;20045;-72
2022/09/03 04:28:48;;;;;;;5.38;1.90;;;22.20;99.90;;;;;;5051325;28;20094;-72
2022/09/03 04:31:18;;;;;;;2.83;1.50;;;22.30;99.90;;;;;;5051486;28;20049;-72
2022/09/03 04:33:47;;;;;;;4.13;1.70;;;22.30;99.90;;;;;;5034032;28;20083;-72
2022/09/03 04:36:20;;;;;;;10.88;2.47;;;22.30;99.90;;;;;;5052230;28;20041;-72
2022/09/03 04:38:51;;;;;;;2.40;1.40;;;22.40;99.90;;;;;;5052433;28;20049;-72
2022/09/03 04:41:23;;;;;;;3.75;2.10;;;22.40;99.90;;;;;;5034764;28;20052;-72
2022/09/03 04:43:53;;;;;;;2.80;1.98;;;22.50;99.90;;;;;;5050610;28;20165;-74
2022/09/03 04:46:24;;;;;;;7.65;1.80;;;22.60;99.90;;;;;;5052079;28;20491;-72
2022/09/03 04:48:53;;;;;;;2.97;1.98;;;22.60;99.90;;;;;;5047778;28;20049;-73
2022/09/03 04:51:26;;;;;;;2.70;1.50;;;22.70;99.90;;;;;;5051863;28;20155;-71
2022/09/03 04:53:56;;;;;;;2.92;1.48;;;22.80;99.90;;;;;;5051514;28;20059;-73
2022/09/03 04:56:26;;;;;;;3.85;1.77;;;23.00;99.90;;;;;;5034044;28;20820;-72
2022/09/03 04:58:56;;;;;;;3.67;1.52;;;23.10;99.90;;;;;;5050656;28;20111;-72
2022/09/03 05:01:26;;;;;;;4.70;2.30;;;23.30;99.90;;;;;;5052055;28;20041;-72
2022/09/03 05:03:58;;;;;;;5.05;1.60;;;23.40;99.90;;;;;;5033911;28;20049;-71
2022/09/03 05:06:26;;;;;;;2.85;1.50;;;23.50;99.90;;;;;;5051822;28;20056;-72
2022/09/03 05:08:55;;;;;;;2.53;1.42;;;23.60;99.90;;;;;;5043315;28;20407;-73
2022/09/03 05:11:23;;;;;;;7.00;2.30;;;23.80;99.90;;;;;;5062795;28;20047;-71
2022/09/03 05:13:54;;;;;;;3.08;1.55;;;23.90;99.90;;;;;;5060496;28;20793;-72
2022/09/03 05:16:23;;;;;;;5.78;1.67;;;24.10;99.90;;;;;;5045382;28;20071;-71
2022/09/03 05:18:55;;;;;;;2.72;1.40;;;24.20;99.90;;;;;;5046272;28;20067;-72
2022/09/03 05:21:23;;;;;;;6.13;2.25;;;24.40;99.90;;;;;;5061484;28;20056;-71
2022/09/03 05:23:51;;;;;;;2.80;1.30;;;24.50;99.90;;;;;;5053543;28;20138;-72
2022/09/03 05:26:24;;;;;;;2.92;1.80;;;24.70;99.90;;;;;;5045122;28;20709;-71
2022/09/03 05:28:54;;;;;;;3.22;1.70;;;24.80;99.90;;;;;;5044169;28;20051;-72
2022/09/03 05:31:25;;;;;;;4.30;1.63;;;24.90;99.90;;;;;;5044180;28;20118;-72
2022/09/03 05:33:59;;;;;;;3.17;2.03;;;25.10;99.90;;;;;;5055788;28;20098;-72
2022/09/03 05:36:29;;;;;;;2.33;1.20;;;25.20;99.90;;;;;;5057085;28;20048;-72
2022/09/03 05:38:58;;;;;;;3.10;1.83;;;25.40;99.90;;;;;;5059956;28;20052;-73
2022/09/03 05:41:27;;;;;;;3.67;1.55;;;25.50;99.90;;;;;;5048174;28;20128;-73
2022/09/03 05:43:57;;;;;;;4.50;1.60;;;25.70;99.90;;;;;;5031467;28;20061;-72
2022/09/03 05:46:31;;;;;;;2.90;1.60;;;25.70;99.90;;;;;;5060831;28;20049;-73
2022/09/03 05:49:00;;;;;;;5.25;1.95;;;25.90;99.90;;;;;;5058573;28;20033;-72
2022/09/03 05:51:30;;;;;;;3.28;1.48;;;26.00;99.90;;;;;;5061759;28;20135;-72
2022/09/03 05:53:58;;;;;;;4.78;2.05;;;26.20;99.90;;;;;;5053859;28;20398;-71
2022/09/03 05:56:27;;;;;;;3.95;1.83;;;26.20;99.90;;;;;;5055779;28;20048;-73
2022/09/03 05:59:00;;;;;;;2.70;1.67;;;26.30;99.90;;;;;;5060684;28;20119;-73
2022/09/03 06:01:36;;;;;;;3.55;1.50;;;26.50;99.90;;;;;;5051223;28;20048;-73
2022/09/03 06:04:08;;;;;;;3.75;1.85;;;26.60;99.90;;;;;;5045135;28;20049;-72
2022/09/03 06:06:41;;;;;;;4.38;1.65;;;26.70;99.90;;;;;;5029636;28;20118;-72
2022/09/03 06:09:12;;;;;;;2.28;1.80;;;26.80;99.90;;;;;;5047847;28;20094;-72
2022/09/03 06:11:41;;;;;;;3.90;1.70;;;26.90;99.90;;;;;;5047626;28;20055;-73
2022/09/03 06:14:11;;;;;;;4.50;2.40;;;27.00;99.90;;;;;;5047848;28;20185;-73
2022/09/03 06:16:45;;;;;;;2.13;1.50;;;27.10;99.90;;;;;;5031907;28;20045;-71
2022/09/03 06:19:13;;;;;;;3.58;1.58;;;27.30;99.90;;;;;;5027944;28;20125;-72
2022/09/03 06:21:43;;;;;;;9.45;2.45;;;27.40;99.90;;;;;;5027039;28;20077;-73
2022/09/03 06:24:14;;;;;;;3.65;1.83;;;27.40;99.90;;;;;;5029534;28;20129;-72
2022/09/03 06:26:42;;;;;;;4.43;2.00;;;27.50;99.90;;;;;;5028042;28;20091;-71
2022/09/03 06:29:10;;;;;;;5.32;2.65;;;27.60;99.90;;;;;;5055028;28;20044;-72
2022/09/03 06:31:38;;;;;;;3.97;1.70;;;27.70;99.90;;;;;;5069394;28;20059;-72
2022/09/03 06:34:06;;;;;;;3.00;1.88;;;27.80;99.90;;;;;;5029060;28;20048;-72
2022/09/03 06:36:34;;;;;;;3.67;2.13;;;27.90;99.90;;;;;;5028819;28;20056;-72
2022/09/03 06:39:01;;;;;;;5.00;2.00;;;28.00;99.90;;;;;;5029219;28;20770;-71
2022/09/03 06:41:34;;;;;;;5.97;1.73;;;28.00;99.90;;;;;;5041801;28;20056;-71
2022/09/03 06:44:04;;;;;;;4.85;1.75;;;28.20;99.90;;;;;;5050404;28;20403;-72
2022/09/03 06:46:37;;;;;;;3.38;1.65;;;28.20;99.90;;;;;;5032482;28;20053;-72
2022/09/03 06:49:05;;;;;;;5.32;1.90;;;28.30;99.90;;;;;;5016091;28;20163;-73
2022/09/03 06:51:33;;;;;;;4.05;2.78;;;28.40;99.80;;;;;;5048899;28;20037;-72
2022/09/03 06:54:05;;;;;;;4.93;2.00;;;28.50;99.70;;;;;;5050330;28;20087;-71
2022/09/03 06:56:34;;;;;;;2.20;1.40;;;28.60;99.50;;;;;;5047998;28;20041;-73
2022/09/03 06:59:10;;;;;;;3.00;1.42;;;28.70;99.30;;;;;;5032076;28;20131;-72
2022/09/03 07:01:41;;;;;;;7.70;1.60;;;28.80;99.20;;;;;;5038598;28;20045;-73
2022/09/03 07:04:10;;;;;;;3.78;2.05;;;29.00;99.10;;;;;;5029149;28;20042;-72
2022/09/03 07:06:39;;;;;;;30.27;6.68;;;29.10;99.00;;;;;;5030051;28;20165;-73
2022/09/03 07:09:09;;;;;;;12.07;3.92;;;29.10;99.00;;;;;;5040350;28;20123;-73
2022/09/03 07:11:45;;;;;;;6.00;2.63;;;29.20;98.70;;;;;;5030117;28;20045;-72
2022/09/03 07:14:13;;;;;;;4.70;1.88;;;29.30;98.40;;;;;;5032196;28;20048;-72
2022/09/03 07:16:42;;;;;;;3.05;1.60;;;29.40;98.20;;;;;;5039910;28;20053;-73
2022/09/03 07:19:12;;;;;;;4.28;1.58;;;29.40;98.10;;;;;;5052838;28;20126;-72
2022/09/03 07:21:40;;;;;;;3.17;1.65;;;29.50;98.10;;;;;;5050972;28;20539;-72
2022/09/03 07:24:11;;;;;;;3.83;1.77;;;29.50;98.20;;;;;;5042427;28;20045;-73
2022/09/03 07:26:43;;;;;;;4.30;1.73;;;29.60;97.90;;;;;;5032217;28;20373;-72
2022/09/03 07:29:11;;;;;;;3.95;1.90;;;29.70;97.80;;;;;;5016415;28;20447;-72
2022/09/03 07:31:41;;;;;;;2.85;1.92;;;29.70;97.60;;;;;;5032249;28;20045;-72
2022/09/03 07:34:11;;;;;;;2.50;1.55;;;29.70;97.30;;;;;;5033448;28;20050;-72
2022/09/03 07:36:44;;;;;;;4.10;1.92;;;29.70;97.30;;;;;;5046368;28;20045;-72
2022/09/03 07:39:13;;;;;;;4.05;1.50;;;29.80;97.30;;;;;;5046304;28;20423;-72
2022/09/03 07:41:44;;;;;;;5.15;1.90;;;29.90;97.10;;;;;;5042044;28;20045;-72
2022/09/03 07:44:14;;;;;;;4.05;1.83;;;29.90;97.00;;;;;;5039894;28;20067;-72
2022/09/03 07:46:44;;;;;;;6.13;1.83;;;30.00;96.90;;;;;;5043568;28;20068;-72
2022/09/03 07:49:12;;;;;;;8.07;2.55;;;30.10;97.00;;;;;;5025317;28;20125;-72
2022/09/03 07:51:40;;;;;;;3.00;1.50;;;30.20;96.60;;;;;;5043621;28;20060;-73
2022/09/03 07:54:09;;;;;;;2.80;2.05;;;30.10;96.20;;;;;;5032404;28;20160;-74
2022/09/03 07:56:39;;;;;;;3.22;1.63;;;30.10;96.30;;;;;;5015566;28;20046;-72
2022/09/03 07:59:07;;;;;;;3.60;1.33;;;30.10;96.20;;;;;;5032045;28;20132;-72
2022/09/03 08:01:36;;;;;;;5.72;2.60;;;30.20;96.10;;;;;;5036159;28;20111;-73
2022/09/03 08:04:05;;;;;;;3.45;1.58;;;30.30;96.00;;;;;;5032392;28;20067;-73
2022/09/03 08:06:33;;;;;;;2.70;1.50;;;30.40;95.70;;;;;;5032479;28;20372;-73
2022/09/03 08:09:03;;;;;;;4.25;1.67;;;30.50;95.50;;;;;;5032118;28;20041;-75
2022/09/03 08:11:35;;;;;;;4.03;1.38;;;30.50;95.20;;;;;;5031342;28;20449;-72
2022/09/03 08:14:06;;;;;;;2.47;2.13;;;30.60;95.40;;;;;;5034214;28;20041;-72
2022/09/03 08:16:39;;;;;;;5.47;1.65;;;30.70;95.20;;;;;;5032065;28;20045;-71
2022/09/03 08:19:07;;;;;;;4.60;1.83;;;30.70;95.00;;;;;;5044241;28;20033;-72
2022/09/03 08:21:35;;;;;;;3.05;1.50;;;30.70;95.00;;;;;;5026019;28;20047;-75
2022/09/03 08:24:03;;;;;;;5.55;1.33;;;30.70;94.90;;;;;;5026460;28;20045;-73
2022/09/03 08:26:33;;;;;;;3.08;1.83;;;30.80;95.00;;;;;;5035925;28;20129;-71
2022/09/03 08:29:02;;;;;;;8.55;2.30;;;30.80;94.80;;;;;;5027040;28;20060;-72
2022/09/03 08:31:31;;;;;;;4.53;1.83;;;30.70;94.50;;;;;;5040404;28;20041;-71
2022/09/03 08:34:05;;;;;;;3.50;1.70;;;30.70;94.60;;;;;;5031930;28;20042;-72
2022/09/03 08:36:35;;;;;;;2.17;1.50;;;30.60;95.00;;;;;;5035232;28;20057;-72
2022/09/03 08:39:09;;;;;;;4.43;1.92;;;30.70;94.90;;;;;;5034495;28;20057;-72
2022/09/03 08:42:13;;;;;;;3.92;2.00;;;30.80;94.90;;;;;;5043025;28;20107;-72
2022/09/03 08:44:41;;;;;;;4.90;1.92;;;30.80;94.40;;;;;;5037530;28;20434;-71
2022/09/03 08:47:26;;;;;;;3.38;1.50;;;30.80;94.70;;;;;;5034115;28;20041;-71
2022/09/03 08:49:58;;;;;;;4.28;1.65;;;30.90;94.50;;;;;;5044959;28;21001;-72
2022/09/03 08:52:48;;;;;;;2.90;1.45;;;30.90;94.10;;;;;;5035858;28;20416;-72
2022/09/03 08:55:30;;;;;;;3.42;1.50;;;31.00;94.20;;;;;;5023835;28;20038;-72
2022/09/03 08:58:01;;;;;;;4.28;1.73;;;31.10;93.70;;;;;;5043721;28;20073;-73
2022/09/03 09:00:47;;;;;;;3.45;1.40;;;31.20;93.40;;;;;;5034384;28;20052;-72
2022/09/03 09:03:30;;;;;;;2.42;1.48;;;31.20;92.50;;;;;;5050762;28;20047;-72
2022/09/03 09:06:15;;;;;;;2.25;1.45;;;31.10;92.10;;;;;;5050501;28;20115;-74
2022/09/03 09:09:20;;;;;;;3.30;1.50;;;31.10;92.30;;;;;;5033939;28;20123;-72
2022/09/03 09:11:59;;;;;;;2.25;1.67;;;31.10;92.50;;;;;;5048565;28;20049;-75
2022/09/03 09:14:39;;;;;;;4.53;1.83;;;31.10;92.50;;;;;;5049122;28;20136;-73
2022/09/03 09:17:40;;;;;;;2.00;1.20;;;31.20;92.10;;;;;;5050994;28;20380;-73
2022/09/03 09:20:45;;;;;;;2.78;1.15;;;31.20;92.30;;;;;;5031184;28;20112;-73
2022/09/03 09:23:27;;;;;;;2.78;1.45;;;31.30;91.90;;;;;;5013395;28;20064;-72
2022/09/03 09:25:58;;;;;;;2.03;1.38;;;31.20;91.80;;;;;;5013114;28;20894;-72
2022/09/03 09:28:33;;;;;;;3.00;1.45;;;31.20;91.90;;;;;;5031412;28;20042;-72
2022/09/03 09:31:03;;;;;;;4.75;1.73;;;31.20;91.60;;;;;;5030236;28;20041;-72
2022/09/03 09:33:32;;;;;;;2.35;1.70;;;31.20;91.20;;;;;;5014022;28;20045;-72
2022/09/03 09:36:04;;;;;;;3.53;1.80;;;31.20;91.40;;;;;;5030803;28;20044;-72
2022/09/03 09:38:35;;;;;;;1.70;1.10;;;31.20;90.70;;;;;;5029912;28;20496;-72
2022/09/03 09:41:15;;;;;;;2.80;1.20;;;31.30;91.10;;;;;;5030133;28;20054;-72
2022/09/03 09:43:44;;;;;;;3.72;1.52;;;31.20;91.10;;;;;;5013770;28;20041;-72
2022/09/03 09:46:14;;;;;;;1.52;1.15;;;31.30;91.00;;;;;;4997300;28;20220;-72
2022/09/03 09:48:55;;;;;;;5.50;1.38;;;31.30;90.90;;;;;;5046375;28;20448;-72
2022/09/03 09:51:31;;;;;;;4.30;1.60;;;31.30;90.50;;;;;;5013455;28;20045;-72
2022/09/03 09:54:10;;;;;;;2.28;1.10;;;31.40;90.80;;;;;;5029670;28;20073;-72
2022/09/03 09:56:37;;;;;;;2.92;1.30;;;31.40;90.60;;;;;;5029941;28;20796;-72
2022/09/03 09:59:07;;;;;;;1.73;0.95;;;31.40;90.40;;;;;;5046188;28;20041;-72
2022/09/03 10:01:44;;;;;;;3.33;1.55;;;31.30;89.70;;;;;;5013087;28;20077;-74
2022/09/03 10:04:29;;;;;;;3.60;1.52;;;31.30;88.00;;;;;;5030771;28;20129;-72
2022/09/03 10:07:26;;;;;;;2.88;1.30;;;31.30;89.30;;;;;;5013446;28;20492;-71
2022/09/03 10:10:20;;;;;;;2.13;1.37;;;31.30;90.10;;;;;;5030188;28;20372;-72
2022/09/03 10:12:58;;;;;;;2.38;1.33;;;31.50;90.30;;;;;;5027139;28;20100;-72
2022/09/03 10:15:38;;;;;;;3.30;1.55;;;31.60;90.60;;;;;;5030714;28;20049;-72
2022/09/03 10:18:31;;;;;;;3.15;1.50;;;31.60;90.50;;;;;;5029500;28;20387;-72
2022/09/03 10:21:36;;;;;;;1.33;0.90;;;31.50;90.40;;;;;;5030618;28;20041;-72
2022/09/03 10:24:27;;;;;;;2.05;1.58;;;31.50;90.10;;;;;;5013043;28;20927;-72
2022/09/03 10:26:54;;;;;;;3.78;1.63;;;31.40;89.70;;;;;;5030013;28;20518;-72
2022/09/03 10:29:29;;;;;;;1.65;1.10;;;31.30;89.40;;;;;;5029353;28;20119;-72
2022/09/03 10:32:44;;;;;;;1.80;1.40;;;31.30;87.90;;;;;;5028213;28;20099;-72
2022/09/03 10:35:27;;;;;;;1.77;0.90;;;31.30;86.80;;;;;;5029579;28;20045;-73
2022/09/03 10:38:13;;;;;;;4.00;1.25;;;31.30;88.80;;;;;;5012260;28;20049;-72
2022/09/03 10:41:09;;;;;;;2.20;1.30;;;31.30;89.20;;;;;;5030341;28;20060;-72
2022/09/03 10:43:52;;;;;;;4.63;1.52;;;31.00;89.30;;;;;;5028715;28;20049;-73
2022/09/03 10:46:36;;;;;;;4.63;1.50;;;31.00;90.00;;;;;;5030283;28;20068;-73
2022/09/03 10:49:28;;;;;;;4.55;1.00;;;31.00;89.50;;;;;;5033853;28;20484;-71
2022/09/03 10:52:01;;;;;;;1.77;1.45;;;30.90;89.60;;;;;;5032785;28;20384;-71
2022/09/03 10:54:47;;;;;;;2.00;1.05;;;30.90;89.40;;;;;;5034463;28;20049;-72
2022/09/03 10:57:44;;;;;;;2.38;1.13;;;30.80;89.70;;;;;;5017093;28;20081;-72
2022/09/03 11:00:17;;;;;;;1.60;1.00;;;30.70;89.90;;;;;;5032839;28;20046;-72
2022/09/03 11:03:11;;;;;;;5.50;1.25;;;30.60;89.30;;;;;;5034105;28;20495;-72
2022/09/03 11:05:44;;;;;;;1.65;1.20;;;30.50;89.40;;;;;;5046238;28;20499;-71
2022/09/03 11:08:35;;;;;;;2.28;1.10;;;30.40;90.20;;;;;;5053052;28;20056;-72
2022/09/03 11:11:12;;;;;;;4.40;1.77;;;30.30;90.30;;;;;;5036233;28;20168;-74
2022/09/03 11:13:52;;;;;;;4.22;1.42;;;30.30;90.60;;;;;;5036002;28;20044;-72
2022/09/03 11:16:25;;;;;;;3.85;1.00;;;30.20;90.70;;;;;;5054005;28;20041;-72
2022/09/03 11:18:58;;;;;;;2.17;1.27;;;30.10;91.20;;;;;;5053971;28;20052;-73
2022/09/03 11:21:29;;;;;;;4.28;1.40;;;30.10;91.20;;;;;;5036354;28;20053;-73
2022/09/03 11:24:13;;;;;;;2.13;1.15;;;30.20;91.50;;;;;;5052198;28;20049;-72
2022/09/03 11:26:47;;;;;;;2.50;1.70;;;30.20;91.60;;;;;;5053745;28;20041;-71
2022/09/03 11:29:31;;;;;;;2.00;1.10;;;30.20;91.00;;;;;;5052581;28;20052;-72
2022/09/03 11:32:07;;;;;;;4.30;1.60;;;30.20;90.90;;;;;;5035481;28;20476;-72
2022/09/03 11:34:49;;;;;;;1.55;1.20;;;30.20;90.60;;;;;;5053614;28;20041;-72
2022/09/03 11:37:20;;;;;;;2.65;1.70;;;30.10;90.70;;;;;;5052365;28;20088;-71
2022/09/03 11:40:12;;;;;;;2.65;1.60;;;30.10;90.90;;;;;;5051961;28;20115;-72
2022/09/03 11:42:42;;;;;;;2.78;1.50;;;30.00;90.50;;;;;;5053242;28;20037;-71
2022/09/03 11:45:22;;;;;;;5.47;1.73;;;30.00;90.60;;;;;;5019312;28;20095;-73
2022/09/03 11:47:50;;;;;;;2.15;1.45;;;29.90;91.70;;;;;;5035216;28;20053;-74
2022/09/03 11:50:24;;;;;;;2.28;1.60;;;29.80;92.00;;;;;;5018758;28;20044;-72
2022/09/03 11:53:05;;;;;;;4.07;1.48;;;29.90;92.00;;;;;;5035852;28;20601;-72
2022/09/03 11:55:46;;;;;;;2.90;1.52;;;29.80;92.20;;;;;;5051784;28;20398;-73
2022/09/03 11:58:34;;;;;;;4.22;1.90;;;29.60;92.00;;;;;;5051299;28;20063;-71
2022/09/03 12:01:12;;;;;;;3.92;1.73;;;29.50;91.80;;;;;;5052762;28;20062;-73
2022/09/03 12:03:39;;;;;;;2.30;1.40;;;29.50;91.50;;;;;;5050681;28;20045;-72
2022/09/03 12:06:13;;;;;;;2.70;1.48;;;29.40;91.50;;;;;;5032290;28;20484;-72
2022/09/03 12:08:57;;;;;;;2.47;1.42;;;29.50;91.40;;;;;;5033176;28;20045;-72
2022/09/03 12:11:53;;;;;;;2.72;1.40;;;29.60;91.30;;;;;;5015019;28;20435;-72
2022/09/03 12:14:26;;;;;;;2.10;1.00;;;29.60;90.60;;;;;;5032162;28;20053;-72
2022/09/03 12:17:15;;;;;;;2.33;1.23;;;29.60;91.10;;;;;;5031662;28;20061;-72
2022/09/03 12:19:57;;;;;;;2.60;1.20;;;29.40;91.10;;;;;;5031229;28;20140;-72
2022/09/03 12:22:30;;;;;;;1.83;1.30;;;29.40;91.20;;;;;;5047882;28;20052;-72
2022/09/03 12:25:10;;;;;;;2.60;1.13;;;29.30;91.30;;;;;;5032529;28;20056;-72
2022/09/03 12:27:42;;;;;;;2.60;1.83;;;29.30;91.30;;;;;;5047392;28;20148;-73
2022/09/03 12:30:16;;;;;;;2.92;1.35;;;29.20;91.40;;;;;;5032535;28;20051;-72
2022/09/03 12:32:45;;;;;;;4.13;1.40;;;29.20;91.90;;;;;;5031325;28;20099;-71
2022/09/03 12:35:14;;;;;;;2.13;1.48;;;29.20;92.20;;;;;;5031331;28;20052;-72
2022/09/03 12:38:02;;;;;;;2.33;1.30;;;29.30;92.20;;;;;;5032022;28;20058;-72
2022/09/03 12:40:31;;;;;;;1.98;1.30;;;29.40;91.70;;;;;;5031178;28;20096;-72
2022/09/03 12:43:16;;;;;;;2.58;1.60;;;29.30;91.50;;;;;;5030607;28;20050;-72
2022/09/03 12:46:05;;;;;;;2.33;1.33;;;29.20;91.60;;;;;;5031075;28;20038;-72
2022/09/03 12:48:36;;;;;;;2.85;1.60;;;29.20;91.50;;;;;;5014635;28;20053;-72
2022/09/03 12:51:05;;;;;;;1.92;1.17;;;29.10;91.70;;;;;;5031887;28;20041;-71
2022/09/03 12:53:53;;;;;;;2.20;1.30;;;29.10;91.80;;;;;;5031052;28;20048;-71
2022/09/03 12:56:21;;;;;;;3.13;1.58;;;29.00;91.60;;;;;;5034483;28;20478;-72
2022/09/03 12:58:57;;;;;;;2.00;1.15;;;29.00;91.70;;;;;;5050821;28;20056;-74
2022/09/03 13:01:30;;;;;;;2.10;1.15;;;29.00;91.90;;;;;;5051180;28;20049;-72
2022/09/03 13:04:18;;;;;;;1.70;1.10;;;29.00;91.80;;;;;;5050445;28;20073;-71
2022/09/03 13:06:55;;;;;;;1.45;0.98;;;29.00;92.10;;;;;;5044702;28;20047;-72
2022/09/03 13:09:25;;;;;;;3.03;1.23;;;29.10;92.80;;;;;;5043315;28;20103;-73
2022/09/03 13:11:54;;;;;;;5.00;1.30;;;29.10;92.10;;;;;;5039105;28;20045;-73
2022/09/03 13:14:25;;;;;;;2.95;1.30;;;29.20;92.00;;;;;;5026288;28;20474;-72
2022/09/03 13:17:11;;;;;;;4.05;1.27;;;29.20;91.90;;;;;;5039101;28;20086;-73
2022/09/03 13:20:17;;;;;;;2.10;1.40;;;29.20;91.60;;;;;;5021870;28;20140;-73
2022/09/03 13:22:56;;;;;;;3.28;1.52;;;29.30;91.70;;;;;;4990137;28;20570;-72
2022/09/03 13:25:34;;;;;;;3.50;1.25;;;29.30;91.60;;;;;;5030294;28;20057;-72
2022/09/03 13:28:10;;;;;;;1.63;1.08;;;29.30;91.80;;;;;;5036614;28;20038;-72
2022/09/03 13:31:07;;;;;;;8.60;1.63;;;29.20;91.60;;;;;;5040976;28;20041;-71